createdAt,value
2023-01-26T00:01:19.215Z,2.60
2023-01-26T00:03:46.275Z,2.50
2023-01-26T00:06:15.433Z,2.40
2023-01-26T00:08:47.705Z,2.40
2023-01-26T00:11:17.199Z,2.30
2023-01-26T00:13:43.905Z,2.30
2023-01-26T00:16:13.281Z,2.30
2023-01-26T00:18:41.320Z,2.20
2023-01-26T00:21:11.227Z,2.20
2023-01-26T00:23:37.967Z,2.20
2023-01-26T00:26:08.853Z,2.10
2023-01-26T00:28:35.553Z,2.10
2023-01-26T00:31:04.221Z,2.00
2023-01-26T00:33:31.030Z,2.00
2023-01-26T00:35:57.679Z,2.00
2023-01-26T00:38:24.405Z,2.00
2023-01-26T00:40:51.210Z,2.00
2023-01-26T00:43:18.102Z,2.00
2023-01-26T00:45:45.096Z,2.10
2023-01-26T00:48:11.718Z,2.10
2023-01-26T00:50:38.362Z,2.20
2023-01-26T00:53:05.242Z,2.20
2023-01-26T00:55:34.590Z,2.20
2023-01-26T00:58:07.032Z,2.30
2023-01-26T01:00:35.798Z,2.30
2023-01-26T01:03:02.638Z,2.30
2023-01-26T01:05:31.395Z,2.30
2023-01-26T01:07:58.502Z,2.40
2023-01-26T01:10:27.411Z,2.40
2023-01-26T01:12:54.531Z,2.40
2023-01-26T01:15:21.185Z,2.30
2023-01-26T01:17:48.223Z,2.30
2023-01-26T01:20:15.533Z,2.40
2023-01-26T01:22:42.237Z,2.40
2023-01-26T01:25:09.220Z,2.50
2023-01-26T01:27:35.852Z,2.50
2023-01-26T01:30:07.514Z,2.60
2023-01-26T01:32:39.893Z,2.60
2023-01-26T01:35:07.249Z,2.60
2023-01-26T01:37:34.313Z,2.60
2023-01-26T01:40:00.947Z,2.60
2023-01-26T01:42:27.975Z,2.60
2023-01-26T01:45:37.326Z,2.60
2023-01-26T01:48:07.603Z,2.50
2023-01-26T01:50:39.285Z,2.50
2023-01-26T01:53:08.184Z,2.50
2023-01-26T01:55:35.347Z,2.50
2023-01-26T01:58:03.413Z,2.50
2023-01-26T02:00:30.081Z,2.50
2023-01-26T02:03:19.192Z,2.40
2023-01-26T02:06:06.733Z,2.40
2023-01-26T02:08:54.928Z,2.40
2023-01-26T02:11:44.965Z,2.40
2023-01-26T02:14:14.310Z,2.30
2023-01-26T02:16:40.960Z,2.30
2023-01-26T02:19:19.887Z,2.30
2023-01-26T02:21:49.612Z,2.30
2023-01-26T02:24:28.476Z,2.30
2023-01-26T02:26:55.612Z,2.30
2023-01-26T02:29:22.651Z,2.30
2023-01-26T02:31:49.390Z,2.30
2023-01-26T02:34:16.102Z,2.20
2023-01-26T02:36:42.739Z,2.20
2023-01-26T02:39:12.346Z,2.20
2023-01-26T02:41:58.335Z,2.20
2023-01-26T02:44:25.971Z,2.20
2023-01-26T02:46:53.315Z,2.20
2023-01-26T02:49:38.312Z,2.20
2023-01-26T02:52:05.934Z,2.20
2023-01-26T02:54:51.342Z,2.10
2023-01-26T02:57:18.050Z,2.10
2023-01-26T02:59:44.749Z,2.10
2023-01-26T03:02:11.980Z,2.10
2023-01-26T03:04:38.614Z,2.10
2023-01-26T03:07:05.277Z,2.20
2023-01-26T03:09:31.943Z,2.20
2023-01-26T03:11:58.586Z,2.20
2023-01-26T03:14:25.189Z,2.20
2023-01-26T03:16:51.823Z,2.20
2023-01-26T03:19:36.823Z,2.30
2023-01-26T03:22:22.293Z,2.20
2023-01-26T03:25:07.757Z,2.10
2023-01-26T03:27:44.140Z,2.10
2023-01-26T03:30:12.359Z,2.10
2023-01-26T03:32:39.550Z,2.10
2023-01-26T03:35:06.984Z,2.10
2023-01-26T03:37:36.874Z,2.10
2023-01-26T03:40:23.080Z,2.00
2023-01-26T03:43:08.446Z,2.00
2023-01-26T03:45:53.836Z,2.00
2023-01-26T03:48:39.270Z,2.00
2023-01-26T03:51:24.637Z,2.00
2023-01-26T03:54:09.902Z,2.00
2023-01-26T03:56:36.524Z,2.00
2023-01-26T03:59:08.903Z,2.10
2023-01-26T04:01:40.730Z,2.10
2023-01-26T04:04:26.693Z,2.10
2023-01-26T04:07:12.121Z,2.10
2023-01-26T04:09:41.731Z,2.20
2023-01-26T04:12:10.291Z,2.20
2023-01-26T04:14:55.878Z,2.20
2023-01-26T04:17:41.257Z,2.20
2023-01-26T04:20:27.290Z,2.20
2023-01-26T04:22:53.919Z,2.20
2023-01-26T04:25:21.944Z,2.30
2023-01-26T04:27:48.621Z,2.20
2023-01-26T04:30:16.619Z,2.30
2023-01-26T04:32:43.527Z,2.30
2023-01-26T04:35:10.860Z,2.30
2023-01-26T04:37:38.454Z,2.30
2023-01-26T04:40:06.472Z,2.20
2023-01-26T04:42:33.095Z,2.20
2023-01-26T04:44:59.691Z,2.20
2023-01-26T04:47:28.973Z,2.20
2023-01-26T04:49:56.035Z,2.20
2023-01-26T04:52:22.912Z,2.20
2023-01-26T04:54:49.562Z,2.20
2023-01-26T04:57:16.286Z,2.20
2023-01-26T04:59:42.994Z,2.20
2023-01-26T05:02:09.652Z,2.20
2023-01-26T05:04:36.424Z,2.10
2023-01-26T05:07:03.259Z,2.10
2023-01-26T05:09:29.956Z,2.10
2023-01-26T05:12:16.575Z,2.10
2023-01-26T05:14:43.196Z,2.10
2023-01-26T05:17:09.816Z,2.10
2023-01-26T05:19:36.402Z,2.20
2023-01-26T05:22:03.028Z,2.10
2023-01-26T05:24:29.678Z,2.20
2023-01-26T05:27:16.292Z,2.10
2023-01-26T05:29:42.906Z,2.10
2023-01-26T05:32:09.582Z,2.10
2023-01-26T05:34:36.234Z,2.10
2023-01-26T05:37:02.938Z,2.10
2023-01-26T05:39:29.582Z,2.10
2023-01-26T05:41:56.922Z,2.00
2023-01-26T05:44:27.204Z,2.10
2023-01-26T05:46:53.837Z,2.10
2023-01-26T05:49:20.552Z,2.10
2023-01-26T05:51:47.202Z,2.10
2023-01-26T05:54:13.835Z,2.10
2023-01-26T05:56:40.535Z,2.10
2023-01-26T05:59:07.184Z,2.10
2023-01-26T06:01:33.818Z,2.20
2023-01-26T06:04:00.578Z,2.20
2023-01-26T06:06:27.299Z,2.10
2023-01-26T06:08:53.982Z,2.10
2023-01-26T06:11:20.692Z,2.10
2023-01-26T06:13:48.695Z,2.10
2023-01-26T06:16:15.471Z,2.10
2023-01-26T06:18:42.235Z,2.10
2023-01-26T06:21:08.883Z,2.10
2023-01-26T06:23:35.520Z,2.10
2023-01-26T06:26:02.796Z,2.10
2023-01-26T06:28:31.099Z,2.10
2023-01-26T06:31:05.555Z,2.10
2023-01-26T06:33:36.751Z,2.10
2023-01-26T06:36:05.084Z,2.10
2023-01-26T06:38:32.556Z,2.00
2023-01-26T06:41:03.027Z,2.00
2023-01-26T06:43:34.516Z,2.00
2023-01-26T06:46:02.693Z,2.00
2023-01-26T06:48:31.659Z,2.00
2023-01-26T06:51:24.360Z,2.00
2023-01-26T06:53:54.642Z,2.00
2023-01-26T06:56:22.683Z,2.00
2023-01-26T06:58:49.646Z,2.00
2023-01-26T07:01:18.981Z,2.00
2023-01-26T07:03:47.339Z,2.00
2023-01-26T07:06:14.063Z,2.00
2023-01-26T07:08:41.389Z,1.90
2023-01-26T07:11:09.238Z,1.90
2023-01-26T07:13:36.014Z,1.90
2023-01-26T07:16:11.404Z,1.90
2023-01-26T07:18:38.132Z,1.90
2023-01-26T07:21:15.970Z,1.90
2023-01-26T07:23:42.616Z,1.90
2023-01-26T07:26:09.400Z,1.90
2023-01-26T07:28:37.557Z,1.90
2023-01-26T07:31:06.925Z,2.00
2023-01-26T07:33:34.915Z,1.90
2023-01-26T07:36:02.195Z,1.90
2023-01-26T07:38:29.288Z,1.90
2023-01-26T07:40:57.028Z,1.90
2023-01-26T07:43:23.832Z,1.90
2023-01-26T07:45:52.809Z,1.90
2023-01-26T07:48:21.759Z,1.90
2023-01-26T07:50:49.444Z,1.90
2023-01-26T07:53:19.301Z,1.90
2023-01-26T07:55:47.041Z,1.90
2023-01-26T07:58:13.805Z,1.90
2023-01-26T08:00:40.911Z,1.90
2023-01-26T08:03:07.605Z,1.90
2023-01-26T08:05:35.560Z,1.90
2023-01-26T08:08:02.528Z,1.80
2023-01-26T08:10:31.580Z,1.80
2023-01-26T08:13:00.568Z,1.80
2023-01-26T08:15:28.359Z,1.80
2023-01-26T08:17:55.128Z,1.90
2023-01-26T08:20:21.901Z,1.80
2023-01-26T08:22:48.531Z,1.80
2023-01-26T08:25:15.263Z,1.80
2023-01-26T08:27:41.879Z,1.80
2023-01-26T08:30:09.409Z,1.90
2023-01-26T08:32:36.269Z,1.90
2023-01-26T08:35:03.139Z,1.80
2023-01-26T08:37:29.806Z,1.90
2023-01-26T08:39:56.430Z,1.90
2023-01-26T08:42:23.056Z,1.90
2023-01-26T08:44:49.708Z,2.00
2023-01-26T08:47:16.317Z,2.00
2023-01-26T08:49:42.971Z,2.00
2023-01-26T08:52:09.605Z,2.00
2023-01-26T08:54:36.311Z,2.10
2023-01-26T08:57:02.937Z,2.10
2023-01-26T08:59:29.591Z,2.10
2023-01-26T09:01:56.331Z,2.20
2023-01-26T09:04:23.055Z,2.20
2023-01-26T09:06:49.682Z,2.20
2023-01-26T09:09:16.348Z,2.20
2023-01-26T09:11:43.044Z,2.20
2023-01-26T09:14:09.673Z,2.20
2023-01-26T09:16:36.374Z,2.20
2023-01-26T09:19:03.166Z,2.20
2023-01-26T09:21:29.814Z,2.30
2023-01-26T09:23:57.288Z,2.20
2023-01-26T09:26:24.354Z,2.20
2023-01-26T09:28:52.643Z,2.20
2023-01-26T09:31:19.455Z,2.20
2023-01-26T09:33:46.301Z,2.20
2023-01-26T09:36:13.215Z,2.20
2023-01-26T09:38:40.239Z,2.30
2023-01-26T09:41:22.045Z,2.30
2023-01-26T09:44:05.569Z,2.30
2023-01-26T09:46:44.305Z,2.20
2023-01-26T09:49:19.256Z,2.20
2023-01-26T09:51:48.901Z,2.30
2023-01-26T09:54:22.467Z,2.20
2023-01-26T09:56:49.121Z,2.20
2023-01-26T09:59:35.134Z,2.20
2023-01-26T10:02:25.930Z,2.30
2023-01-26T10:04:58.412Z,2.30
2023-01-26T10:07:25.117Z,2.30
2023-01-26T10:09:53.288Z,2.30
2023-01-26T10:12:35.649Z,2.40
2023-01-26T10:15:23.235Z,2.50
2023-01-26T10:17:52.906Z,2.50
2023-01-26T10:20:35.249Z,2.50
2023-01-26T10:23:16.515Z,2.50
2023-01-26T10:25:46.794Z,2.50
2023-01-26T10:28:16.155Z,2.60
2023-01-26T10:30:45.649Z,2.70
2023-01-26T10:33:18.067Z,2.70
2023-01-26T10:35:45.363Z,2.60
2023-01-26T10:38:38.649Z,2.60
2023-01-26T10:41:26.742Z,2.60
2023-01-26T10:44:02.668Z,2.60
2023-01-26T10:46:35.298Z,2.60
2023-01-26T10:49:10.098Z,2.60
2023-01-26T10:51:39.681Z,2.70
2023-01-26T10:54:23.792Z,2.80
2023-01-26T10:57:00.370Z,2.70
2023-01-26T10:59:34.177Z,2.80
2023-01-26T11:02:28.020Z,2.80
2023-01-26T11:05:06.922Z,2.80
2023-01-26T11:07:36.301Z,2.80
2023-01-26T11:10:26.047Z,2.80
2023-01-26T11:13:16.599Z,2.80
2023-01-26T11:16:11.925Z,2.90
2023-01-26T11:18:52.438Z,2.90
2023-01-26T11:21:40.315Z,2.90
2023-01-26T11:24:34.639Z,2.80
2023-01-26T11:27:07.321Z,2.80
2023-01-26T11:29:46.210Z,2.80
2023-01-26T11:32:51.950Z,2.70
2023-01-26T11:35:24.627Z,2.70
2023-01-26T11:38:18.391Z,2.70
2023-01-26T11:41:14.402Z,2.70
2023-01-26T11:43:40.998Z,2.60
2023-01-26T11:46:17.382Z,2.60
2023-01-26T11:49:10.123Z,2.60
2023-01-26T11:51:58.118Z,2.60
2023-01-26T11:54:39.314Z,2.70
2023-01-26T11:57:30.859Z,2.70
2023-01-26T12:00:00.240Z,2.80
2023-01-26T12:02:34.094Z,2.80
2023-01-26T12:05:13.616Z,2.90
2023-01-26T12:08:05.711Z,2.90
2023-01-26T12:11:21.616Z,3.00
2023-01-26T12:13:58.720Z,3.00
2023-01-26T12:16:31.528Z,3.10
2023-01-26T12:19:11.317Z,3.10
2023-01-26T12:21:43.885Z,3.10
2023-01-26T12:24:46.769Z,3.20
2023-01-26T12:27:22.107Z,3.30
2023-01-26T12:30:05.996Z,3.30
2023-01-26T12:32:33.677Z,3.30
2023-01-26T12:35:00.433Z,3.20
2023-01-26T12:37:37.522Z,3.30
2023-01-26T12:40:09.992Z,3.40
2023-01-26T12:43:11.849Z,3.40
2023-01-26T12:45:42.003Z,3.40
2023-01-26T12:48:17.648Z,3.40
2023-01-26T12:50:57.009Z,3.40
2023-01-26T12:53:33.657Z,3.40
2023-01-26T12:56:10.042Z,3.30
2023-01-26T12:58:44.420Z,3.20
2023-01-26T13:01:17.694Z,3.10
2023-01-26T13:03:58.126Z,3.20
2023-01-26T13:06:26.923Z,3.20
2023-01-26T13:09:15.597Z,3.20
2023-01-26T13:11:54.012Z,3.10
2023-01-26T13:14:41.834Z,3.20
2023-01-26T13:17:17.588Z,3.20
2023-01-26T13:19:44.230Z,3.20
2023-01-26T13:22:25.924Z,3.20
2023-01-26T13:24:55.659Z,3.20
2023-01-26T13:27:31.013Z,3.20
2023-01-26T13:29:58.098Z,3.20
2023-01-26T13:32:24.670Z,3.10
2023-01-26T13:34:59.999Z,3.10
2023-01-26T13:37:34.477Z,3.10
2023-01-26T13:40:06.316Z,3.00
2023-01-26T13:42:43.951Z,2.60
2023-01-26T13:45:52.054Z,2.50
2023-01-26T13:48:41.394Z,2.40
2023-01-26T13:51:12.603Z,2.40
2023-01-26T13:53:41.594Z,2.30
2023-01-26T13:56:30.875Z,2.30
2023-01-26T13:59:27.042Z,2.30
2023-01-26T14:01:56.266Z,1.70
2023-01-26T14:04:31.164Z,2.10
2023-01-26T14:07:16.451Z,2.10
2023-01-26T14:09:49.629Z,2.30
2023-01-26T14:12:41.838Z,2.30
2023-01-26T14:15:23.595Z,2.40
2023-01-26T14:18:00.464Z,2.40
2023-01-26T14:20:36.572Z,2.30
2023-01-26T14:23:15.363Z,2.40
2023-01-26T14:25:46.996Z,2.60
2023-01-26T14:28:16.444Z,2.60
2023-01-26T14:30:44.788Z,2.70
2023-01-26T14:33:16.426Z,2.70
2023-01-26T14:36:00.181Z,2.70
2023-01-26T14:38:29.560Z,2.70
2023-01-26T14:40:58.720Z,2.80
2023-01-26T14:43:27.205Z,2.80
2023-01-26T14:45:59.931Z,2.80
2023-01-26T14:48:38.537Z,2.80
2023-01-26T14:51:06.963Z,2.80
2023-01-26T14:53:33.955Z,2.80
2023-01-26T14:56:00.715Z,2.80
2023-01-26T14:58:33.540Z,2.80
2023-01-26T15:01:01.548Z,2.70
2023-01-26T15:03:36.305Z,2.80
2023-01-26T15:06:13.696Z,2.70
2023-01-26T15:08:41.625Z,2.70
2023-01-26T15:11:28.321Z,2.70
2023-01-26T15:13:56.122Z,2.70
2023-01-26T15:16:25.237Z,2.50
2023-01-26T15:19:08.894Z,2.50
2023-01-26T15:21:40.298Z,2.50
2023-01-26T15:24:13.732Z,2.40
2023-01-26T15:26:40.994Z,2.40
2023-01-26T15:29:30.966Z,2.40
2023-01-26T15:31:58.683Z,2.40
2023-01-26T15:34:37.299Z,2.40
2023-01-26T15:37:31.691Z,2.50
2023-01-26T15:39:58.570Z,2.50
2023-01-26T15:42:28.850Z,2.60
2023-01-26T15:44:55.790Z,2.60
2023-01-26T15:47:22.548Z,2.60
2023-01-26T15:49:49.172Z,2.60
2023-01-26T15:52:17.628Z,2.70
2023-01-26T15:54:45.188Z,2.70
2023-01-26T15:57:12.537Z,2.70
2023-01-26T15:59:40.144Z,2.70
2023-01-26T16:02:17.873Z,2.70
2023-01-26T16:04:45.219Z,2.70
2023-01-26T16:07:17.817Z,2.70
2023-01-26T16:09:44.691Z,2.70
2023-01-26T16:12:30.341Z,2.70
2023-01-26T16:14:57.717Z,2.70
2023-01-26T16:17:24.358Z,2.70
2023-01-26T16:19:50.998Z,2.70
2023-01-26T16:22:17.721Z,2.70
2023-01-26T16:24:45.394Z,2.70
2023-01-26T16:27:12.051Z,2.70
2023-01-26T16:29:38.705Z,2.70
2023-01-26T16:32:27.033Z,2.70
2023-01-26T16:34:53.670Z,2.70
2023-01-26T16:37:20.297Z,2.70
2023-01-26T16:39:46.912Z,2.70
2023-01-26T16:42:18.489Z,2.60
2023-01-26T16:44:45.717Z,2.60
2023-01-26T16:47:12.364Z,2.60
2023-01-26T16:49:39.039Z,2.60
2023-01-26T16:52:07.670Z,2.60
2023-01-26T16:54:34.294Z,2.60
2023-01-26T16:57:00.979Z,2.60
2023-01-26T16:59:27.698Z,2.60
2023-01-26T17:01:54.590Z,2.60
2023-01-26T17:04:21.251Z,2.60
2023-01-26T17:06:48.099Z,2.60
2023-01-26T17:09:14.724Z,2.60
2023-01-26T17:11:41.413Z,2.50
2023-01-26T17:14:10.212Z,2.50
2023-01-26T17:16:37.047Z,2.50
2023-01-26T17:19:03.720Z,2.50
2023-01-26T17:21:30.375Z,2.40
2023-01-26T17:23:58.699Z,2.30
2023-01-26T17:26:25.413Z,2.30
2023-01-26T17:28:55.593Z,2.20
2023-01-26T17:31:24.070Z,2.20
2023-01-26T17:33:51.484Z,2.10
2023-01-26T17:36:19.141Z,2.10
2023-01-26T17:38:46.697Z,2.10
2023-01-26T17:41:13.358Z,2.10
2023-01-26T17:43:40.064Z,2.20
2023-01-26T17:46:08.281Z,2.10
2023-01-26T17:48:37.547Z,2.10
2023-01-26T17:51:23.039Z,2.00
2023-01-26T17:53:50.222Z,1.90
2023-01-26T17:56:20.211Z,1.90
2023-01-26T17:58:51.746Z,1.90
2023-01-26T18:01:19.671Z,1.90
2023-01-26T18:03:46.570Z,1.80
2023-01-26T18:06:13.344Z,1.80
2023-01-26T18:08:40.466Z,1.70
2023-01-26T18:11:10.057Z,1.70
2023-01-26T18:13:36.979Z,1.80
2023-01-26T18:16:06.330Z,1.70
2023-01-26T18:18:33.037Z,1.80
2023-01-26T18:21:17.643Z,1.80
2023-01-26T18:23:46.169Z,1.70
2023-01-26T18:26:13.311Z,1.70
2023-01-26T18:28:41.927Z,1.70
2023-01-26T18:31:15.618Z,1.70
2023-01-26T18:33:42.774Z,1.70
2023-01-26T18:36:11.949Z,1.70
2023-01-26T18:38:39.883Z,1.70
2023-01-26T18:41:14.102Z,1.60
2023-01-26T18:43:41.996Z,1.70
2023-01-26T18:46:09.150Z,1.70
2023-01-26T18:48:36.319Z,1.70
2023-01-26T18:51:03.507Z,1.70
2023-01-26T18:53:30.965Z,1.70
2023-01-26T18:56:08.698Z,1.60
2023-01-26T18:58:37.579Z,1.60
2023-01-26T19:01:09.297Z,1.60
2023-01-26T19:03:37.353Z,1.50
2023-01-26T19:06:05.394Z,1.50
2023-01-26T19:08:32.594Z,1.50
2023-01-26T19:11:06.798Z,1.40
2023-01-26T19:13:33.792Z,1.40
2023-01-26T19:16:00.722Z,1.40
2023-01-26T19:18:27.596Z,1.40
2023-01-26T19:20:58.068Z,1.40
2023-01-26T19:23:25.200Z,1.50
2023-01-26T19:25:51.866Z,1.80
2023-01-26T19:28:18.755Z,1.60
2023-01-26T19:30:45.600Z,1.60
2023-01-26T19:33:24.609Z,1.70
2023-01-26T19:35:52.394Z,1.70
2023-01-26T19:38:19.765Z,1.80
2023-01-26T19:40:49.001Z,1.80
2023-01-26T19:43:19.007Z,1.90
2023-01-26T19:45:50.556Z,1.90
2023-01-26T19:48:17.257Z,1.90
2023-01-26T19:50:43.994Z,1.90
2023-01-26T19:53:10.839Z,1.90
2023-01-26T19:55:37.458Z,1.90
2023-01-26T19:58:04.184Z,1.90
2023-01-26T20:00:30.937Z,2.00
2023-01-26T20:02:57.605Z,2.00
2023-01-26T20:05:24.263Z,2.00
2023-01-26T20:07:50.960Z,2.00
2023-01-26T20:10:17.623Z,2.00
2023-01-26T20:12:44.254Z,2.00
2023-01-26T20:15:11.428Z,2.00
2023-01-26T20:17:38.179Z,1.90
2023-01-26T20:20:05.413Z,1.90
2023-01-26T20:22:34.006Z,1.80
2023-01-26T20:25:00.861Z,1.80
2023-01-26T20:27:29.259Z,1.70
2023-01-26T20:29:56.238Z,1.70
2023-01-26T20:32:23.080Z,1.70
2023-01-26T20:34:50.115Z,1.60
2023-01-26T20:37:16.793Z,1.60
2023-01-26T20:39:46.652Z,1.60
2023-01-26T20:42:16.522Z,1.50
2023-01-26T20:44:43.601Z,1.50
2023-01-26T20:47:10.345Z,1.50
2023-01-26T20:49:37.383Z,1.50
2023-01-26T20:52:07.587Z,1.50
2023-01-26T20:54:35.593Z,1.50
2023-01-26T20:57:02.589Z,1.50
2023-01-26T20:59:29.848Z,1.50
2023-01-26T21:01:56.740Z,1.50
2023-01-26T21:04:23.633Z,1.50
2023-01-26T21:06:50.384Z,1.50
2023-01-26T21:09:17.195Z,1.50
2023-01-26T21:11:43.849Z,1.50
2023-01-26T21:14:13.158Z,1.50
2023-01-26T21:16:40.462Z,1.50
2023-01-26T21:19:07.359Z,1.50
2023-01-26T21:21:34.081Z,1.50
2023-01-26T21:24:00.863Z,1.50
2023-01-26T21:26:30.556Z,1.50
2023-01-26T21:28:59.720Z,1.50
2023-01-26T21:31:29.607Z,1.50
2023-01-26T21:33:57.171Z,1.50
2023-01-26T21:36:26.939Z,1.50
2023-01-26T21:38:56.375Z,1.50
2023-01-26T21:41:49.714Z,1.50
2023-01-26T21:44:28.752Z,1.50
2023-01-26T21:46:58.163Z,1.60
2023-01-26T21:49:25.592Z,1.50
2023-01-26T21:52:11.372Z,1.50
2023-01-26T21:54:38.083Z,1.50
2023-01-26T21:57:26.581Z,1.50
2023-01-26T21:59:53.283Z,1.40
2023-01-26T22:02:20.179Z,1.40
2023-01-26T22:04:47.000Z,1.40
2023-01-26T22:07:13.749Z,1.50
2023-01-26T22:09:41.073Z,1.40
2023-01-26T22:12:07.916Z,1.40
2023-01-26T22:14:34.592Z,1.40
2023-01-26T22:17:01.394Z,1.50
2023-01-26T22:19:28.216Z,1.50
2023-01-26T22:21:54.845Z,1.60
2023-01-26T22:24:21.574Z,1.60
2023-01-26T22:26:48.760Z,1.60
2023-01-26T22:29:15.386Z,1.60
2023-01-26T22:31:42.324Z,1.60
2023-01-26T22:34:11.626Z,1.60
2023-01-26T22:36:39.144Z,1.60
2023-01-26T22:39:05.869Z,1.60
2023-01-26T22:41:32.514Z,1.60
2023-01-26T22:44:00.271Z,1.60
2023-01-26T22:46:28.757Z,1.60
2023-01-26T22:48:57.342Z,1.60
2023-01-26T22:51:29.613Z,1.60
2023-01-26T22:53:57.424Z,1.60
2023-01-26T22:56:24.671Z,1.60
2023-01-26T22:58:58.482Z,1.60
2023-01-26T23:01:28.340Z,1.70
2023-01-26T23:03:55.787Z,1.70
2023-01-26T23:06:23.328Z,1.80
2023-01-26T23:08:50.539Z,1.80
2023-01-26T23:11:20.418Z,1.90
2023-01-26T23:13:48.944Z,1.90
2023-01-26T23:16:15.768Z,1.90
2023-01-26T23:18:43.195Z,1.90
2023-01-26T23:21:10.195Z,1.90
2023-01-26T23:23:39.085Z,1.90
2023-01-26T23:26:05.952Z,1.90
2023-01-26T23:28:36.275Z,2.00
2023-01-26T23:31:03.942Z,2.00
2023-01-26T23:33:32.007Z,2.00
2023-01-26T23:35:59.575Z,2.00
2023-01-26T23:38:27.811Z,2.10
2023-01-26T23:40:54.868Z,2.10
2023-01-26T23:43:22.053Z,2.10
2023-01-26T23:45:50.423Z,2.10
2023-01-26T23:48:17.469Z,2.20
2023-01-26T23:50:44.358Z,2.20
2023-01-26T23:53:11.825Z,2.30
2023-01-26T23:55:43.180Z,2.30
2023-01-26T23:58:11.268Z,2.30
